Aérodrome :
LOGIN :

S'inscrire | Disclaimer

   EN    FR    IT 

 










Légende :    VFR   VFR Marginal   IFR   IFR Intensif   IFR Très Intensif
Visi : 
Plafond : 
>= 8 km
>= 3000ft
5 à 8 km
1000 à 3000 ft
1500m à 5 km
500 à 1000 ft
800 à 1500m
200 à 500 ft
< 800m
< 200 ft
Symboles :   Orages  Brouillard  Fortes neiges  Fortes précipitations  Vent > 20 kt
SIGMETs :   Divers  Orages  Givrage  Turbulence  Onde Orograph.  Cendres Volcan.







- Altitude de l'aérodrome : 1260 ft
- Code IATA : LDE
- Voir les cartes d'approche


LFBT - Tarbes / Ossun

DERNIER METAR :
  • 200930Z AUTO 29004KT 240V330 9999 SCT084 BKN100 17/12 Q1017 NOSIG

METARs EXPIRÉS :
  • 200900Z AUTO 32004KT 280V020 9999 BKN090 16/11 Q1018 NOSIG
  • 200830Z AUTO 28004KT 240V350 9999 FEW043 BKN092 16/11 Q1018 NOSIG
  • 200800Z AUTO 29003KT 260V320 9999 SCT037 SCT049 OVC086 14/11 Q1018 NOSIG
  • 200730Z AUTO 26003KT 230V300 9999 OVC036 14/11 Q1018 NOSIG
  • 200700Z AUTO 27005KT 9999 BKN036 14/11 Q1018 TEMPO 4000 BR BKN004

TAF AMD TAF LFBT
Valide du 20 à 08h jusqu'au 21 à 06h UTC


200803Z 2008/2106 VRB02KT 9999 BKN035 SCT080
TEMPO 2013/2020 4000 SHRA BKN030TCU FEW035CB
PROB40
TEMPO 2014/2018 3000 TSRA BKN030CB
BECMG 2022/2024 BKN080
Pas de NOTAMs connus pour ce terrain.



MET'MAP, la Météo Aéronautique d'un coup d'oeil ! - Copyright ORBIFLY Décembre 2007 - Disclaimer

ORBIFLY MET'MAP TEAM :

Programmation & Développement : Alexandra Zaïnal
Conception & Développement : Baudouin d'Aumeries
Co-Programmation & Développement : Marc-Olivier Méhu
Soutien technique & logistique : Manuel Goepfert

Contact : metmap@orbifly.com




SOURCES & CREDITS :

   NOAA